Algoa, TX

2:12 PM CDT on October 01, 2014 (GMT -0500)
Texas Gulf flat lands. | Change Station
CLOSE
Current Station
Personal Weather Station
Location: Alvin, TX
Elevation: 69 ft
Nearby Weather Stations
Active Advisory: Special Weather Statement

Elev 69 ft 29.42 °N, 95.25 °W | Updated 9 minutes ago

Mostly Cloudy
Mostly Cloudy
89.4 °F
Feels Like 102 °F
N
0.0
Wind Variable Wind from SSW

Today
High -- | Low -- °F
--% Chance of Precip.
Yesterday
High -- | Low -- °F
Precip. -- in
7:14 AM 7:06 PM
Waxing Crescent, 50% visible
Pressure 29.82 in
Visibility 10.0 miles
Clouds Few 4300 ft
Heat Index 102 °F
Dew Point 77 °F
Humidity 67%
Rainfall 0.00 in
Snow Depth Not available.
UV 8 out of 12
Pollen 8.00 out of 12
Ozone Good
PM2.5 Good
Flu Activity Not available.
METAR KLVJ 011853Z AUTO 17007KT 10SM FEW043 33/21 A2982 RMK AO2 SLP096 T03280211

More Conditions Fewer Conditions

Pressure 29.82 in
Visibility 10.0 miles
Clouds Few 4300 ft
Heat Index 102 °F
Dew Point 77 °F
Humidity 67%
Rainfall 0.00 in
Snow Depth Not available.
UV 8 out of 12
Pollen 8.00 out of 12
Ozone Good
PM2.5 Good
Flu Activity Not available.
METAR KLVJ 011853Z AUTO 17007KT 10SM FEW043 33/21 A2982 RMK AO2 SLP096 T03280211

More Conditions Fewer Conditions

10-Day Weather Forecast

Almanac

Astronomy

Oct. 01, 2014 Rise Set
Actual Time 7:14 AM CDT 7:06 PM CDT
Civil Twilight 6:50 AM CDT 7:30 PM CDT
Nautical Twilight 6:22 AM CDT 7:57 PM CDT
Astronomical Twilight 5:55 AM CDT 8:25 PM CDT
Moon 1:56 PM CDT No Moon Set
Length of Visible Light 12h 39m
Length of Day
11h 52m
Tomorrow will be 1m 45s shorter.
Waxing Crescent, 50% of the Moon is Illuminated
Today
Waxing Crescent
Oct 1
First Quarter
Oct 8
Full
Oct 15
Last Quarter
Oct 23
New

Today's Extremes

State Highs State Lows

Community

WunderPhotos

Upload Photos

1,758,010 photos uploaded!

WunderBlogs® & News

Nearby

Air Quality

  Air Quality AQ Index Pollutant
Yesterday Good
OZONE
Yesterday Good
PM2.5
Current Good
OZONE
Current Good
PM2.5
Wednesday Good
OZONE
Wednesday Good
PM10
Thursday Good
OZONE
Thursday Good
PM10
Friday Good
OZONE
Friday Good
PM10
Saturday Good
OZONE
Saturday Good
PM10

Snow Depth

Station Depth Elevation
No new snow has been reported.

Earthquake Activity

City Distance Mag. Time & Date
No recent earthquake activity has been reported nearby.
Minimum magnitude displayed is 2.5.

Coastal Water Temperatures

Place Temperature
Eagle Point, TX 82.9 °F
USCG Freeport, TX 82.0 °F
Galveston Pier TX 81.0 °F
Galveston Bay (North Jetty), TX 81.0 °F
Rollover Pass, TX 81.0 °F

Nearby Weather Stations